Airfield :
LOGIN :

Register | Disclaimer

   EN    FR    IT 

 










Legend :    VFR   Marginal VFR   IFR   Intensive IFR   Very Intensive IFR
Visi :
Ceiling :
>= 8 km
>= 3000ft
5 to 8 km
1000 to 3000 ft
1500m to 5 km
500 to 1000 ft
800 to 1500m
200 to 500 ft
< 800m
< 200 ft
Symbols :   Thunderstorms  Fog  Heavy snow  Heavy precipitations  Wind > 20 kt
SIGMETs :     Misc.  Thunderstorms  Icing  Turbulence  Mountain Waves  Volcanic Ashes







- Airport Elevation : 778 ft
- IATA code : BRQ


LKTB - Brno-Turany

CURRENT METAR :
  • 270000Z 07012KT CAVOK 19/14 Q1012 NOSIG

EXPIRED METARs :
  • 262330Z 08010KT CAVOK 19/14 Q1012 NOSIG
  • 262300Z 08008KT CAVOK 19/14 Q1012 NOSIG
  • 262230Z VRB02KT CAVOK 19/14 Q1012 NOSIG
  • 262200Z 03003KT CAVOK 20/14 Q1012 NOSIG
  • 262130Z VRB02KT CAVOK 19/14 Q1012 NOSIG

TAF TAF LKTB
Valid from the 27 at 00:00 until the 28 at 06:00 UTC


262300Z 2700/2806 03005KT CAVOK
PROB30
TEMPO 2710/2716 9999 SCT040TCU
BECMG 2706/2708 12009KT
BECMG 2718/2721 VRB02KT
No reported NOTAMs for that airfield.



MET'MAP, your aeronautical weather chart ! - Copyright ORBIFLY December 2007 - Disclaimer

ORBIFLY MET'MAP TEAM :

Programming & Development : Alexandra Zaïnal
Concept & Development : Baudouin d'Aumeries
Co-Development & Prog : Marc-Olivier Méhu
Technical & hardware support : Manuel Goepfert

Contact : metmap@orbifly.com




SOURCES & CREDITS :

   NOAA